Time;durP1;ratioP1;P1;durP2;ratioP2;P2;SDS_P1;SDS_P2;PMS_P1;PMS_P2;Temp;Humidity;BMP_temperature;BMP_pressure;BME280_temperature;BME280_humidity;BME280_pressure;Samples;Min_cycle;Max_cycle;Signal;HPM_P1;HPM_P2
2021/06/07 00:02:11;;;;;;;22.83;20.33;;;20.20;99.90;;;;;;5004553;28;20437;-84
2021/06/07 00:04:37;;;;;;;20.30;18.10;;;20.00;99.90;;;;;;5011395;28;20418;-80
2021/06/07 00:07:08;;;;;;;20.77;18.73;;;20.50;99.90;;;;;;5009897;28;20466;-83
2021/06/07 00:09:38;;;;;;;21.07;19.03;;;20.30;99.90;;;;;;4970278;28;20445;-81
2021/06/07 00:12:09;;;;;;;21.57;19.47;;;20.40;99.90;;;;;;4997158;28;20793;-84
2021/06/07 00:14:36;;;;;;;21.87;19.90;;;20.00;99.90;;;;;;5007782;28;20462;-82
2021/06/07 00:17:05;;;;;;;22.37;20.20;;;20.50;99.90;;;;;;4987219;28;20541;-84
2021/06/07 00:19:34;;;;;;;21.70;19.47;;;20.40;99.90;;;;;;4997704;28;20426;-82
2021/06/07 00:22:01;;;;;;;23.47;21.27;;;20.50;99.90;;;;;;4993058;28;20434;-85
2021/06/07 00:24:28;;;;;;;22.00;19.80;;;20.10;99.90;;;;;;4982893;28;20463;-84
2021/06/07 00:26:57;;;;;;;23.57;21.13;;;20.40;99.90;;;;;;4987548;28;20542;-83
2021/06/07 00:29:23;;;;;;;22.40;20.40;;;20.30;99.90;;;;;;4994228;28;20538;-80
2021/06/07 00:31:50;;;;;;;22.17;20.07;;;20.30;99.90;;;;;;5014626;28;20432;-85
2021/06/07 00:34:16;;;;;;;23.07;20.70;;;20.00;99.90;;;;;;5013874;28;20534;-84
2021/06/07 00:36:43;;;;;;;21.70;19.63;;;20.20;99.90;;;;;;5006764;28;20462;-81
2021/06/07 00:39:13;;;;;;;22.80;20.60;;;20.00;99.90;;;;;;5005517;28;20454;-84
2021/06/07 00:41:41;;;;;;;21.67;19.77;;;20.50;99.90;;;;;;4984960;28;20486;-81
2021/06/07 00:44:24;;;;;;;21.87;19.80;;;20.00;99.90;;;;;;5013810;28;20942;-81
2021/06/07 00:46:51;;;;;;;22.57;20.43;;;20.50;99.90;;;;;;4960136;28;20527;-83
2021/06/07 00:49:18;;;;;;;24.87;22.50;;;20.40;99.90;;;;;;4948264;28;20455;-82
2021/06/07 00:51:46;;;;;;;23.83;21.53;;;20.40;99.90;;;;;;4959144;28;20457;-81
2021/06/07 00:54:18;;;;;;;21.43;19.33;;;20.00;99.90;;;;;;4967980;28;20931;-82
2021/06/07 00:56:45;;;;;;;24.53;22.20;;;20.10;99.90;;;;;;4972457;28;20469;-82
2021/06/07 00:59:12;;;;;;;25.37;22.97;;;20.40;99.90;;;;;;4971270;28;20864;-79
2021/06/07 01:01:40;;;;;;;23.37;20.97;;;20.00;99.90;;;;;;4970750;28;20444;-83
2021/06/07 01:04:08;;;;;;;23.90;21.47;;;20.40;99.90;;;;;;4939413;29;20405;-82
2021/06/07 01:06:38;;;;;;;21.57;19.53;;;20.40;99.90;;;;;;4957679;28;22134;-81
2021/06/07 01:09:06;;;;;;;21.20;19.20;;;20.40;99.90;;;;;;4964076;28;20435;-84
2021/06/07 01:11:34;;;;;;;21.30;19.30;;;20.30;99.90;;;;;;4970786;28;20438;-82
2021/06/07 01:14:01;;;;;;;20.93;19.00;;;19.80;99.90;;;;;;4941724;28;20459;-80
2021/06/07 01:16:28;;;;;;;22.77;20.53;;;20.20;99.90;;;;;;4953513;28;20450;-83
2021/06/07 01:18:56;;;;;;;22.53;20.33;;;19.90;99.90;;;;;;5004549;28;20549;-82
2021/06/07 01:21:25;;;;;;;22.03;19.83;;;20.30;99.90;;;;;;4996111;28;20456;-84
2021/06/07 01:23:55;;;;;;;22.20;20.10;;;20.20;99.90;;;;;;4993298;28;20836;-83
2021/06/07 01:26:23;;;;;;;21.77;19.57;;;20.20;99.90;;;;;;4979181;28;20502;-83
2021/06/07 01:28:50;;;;;;;20.93;18.97;;;20.10;99.90;;;;;;4991207;28;20447;-80
2021/06/07 01:31:18;;;;;;;21.17;19.10;;;19.90;99.90;;;;;;4995549;28;20518;-84
2021/06/07 01:33:46;;;;;;;24.23;21.87;;;19.70;99.90;;;;;;5011639;28;20470;-83
2021/06/07 01:36:15;;;;;;;22.77;20.50;;;19.80;99.90;;;;;;4986626;28;20494;-82
2021/06/07 01:38:42;;;;;;;21.97;19.77;;;20.10;99.90;;;;;;5004800;28;20918;-86
2021/06/07 01:41:13;;;;;;;23.33;20.93;;;19.80;99.90;;;;;;5008158;28;20938;-83
2021/06/07 01:43:40;;;;;;;24.30;21.67;;;19.70;99.90;;;;;;4985250;28;20433;-80
2021/06/07 01:46:07;;;;;;;26.00;23.37;;;19.60;99.90;;;;;;5014942;28;20440;-83
2021/06/07 01:48:33;;;;;;;24.63;22.20;;;19.80;99.90;;;;;;4994523;28;20409;-83
2021/06/07 01:51:03;;;;;;;22.97;20.57;;;19.60;99.90;;;;;;4994829;28;20450;-83
2021/06/07 01:53:30;;;;;;;23.10;20.60;;;20.00;99.90;;;;;;5011778;28;20455;-83
2021/06/07 01:55:59;;;;;;;23.80;21.40;;;19.70;99.90;;;;;;4995442;28;20429;-87
2021/06/07 01:58:28;;;;;;;26.13;23.43;;;19.80;99.90;;;;;;5010654;28;20570;-83
2021/06/07 02:00:56;;;;;;;23.43;21.20;;;19.70;99.90;;;;;;4988135;28;20468;-79
2021/06/07 02:03:24;;;;;;;23.17;20.70;;;19.60;99.90;;;;;;4990408;28;20503;-80
2021/06/07 02:05:53;;;;;;;25.47;23.00;;;19.80;99.90;;;;;;5012286;28;20476;-82
2021/06/07 02:08:20;;;;;;;24.47;21.97;;;19.40;99.90;;;;;;5004179;28;20886;-83
2021/06/07 02:10:50;;;;;;;23.27;21.07;;;19.60;99.90;;;;;;5011904;28;20409;-81
2021/06/07 02:13:18;;;;;;;22.77;20.63;;;19.60;99.90;;;;;;4993834;28;20436;-86
2021/06/07 02:15:53;;;;;;;20.03;18.03;;;19.40;99.90;;;;;;5012529;28;20598;-81
2021/06/07 02:18:20;;;;;;;21.67;19.47;;;19.80;99.90;;;;;;5010019;28;20470;-80
2021/06/07 02:20:47;;;;;;;20.67;18.80;;;19.30;99.90;;;;;;5004304;28;20901;-83
2021/06/07 02:23:14;;;;;;;19.50;17.60;;;19.60;99.90;;;;;;5012198;28;20755;-85
2021/06/07 02:25:43;;;;;;;19.67;17.93;;;19.80;99.90;;;;;;5010339;28;20752;-86
2021/06/07 02:28:14;;;;;;;19.80;17.87;;;19.30;99.90;;;;;;5003763;28;20457;-79
2021/06/07 02:30:43;;;;;;;20.57;18.50;;;19.50;99.90;;;;;;5005592;28;20422;-79
2021/06/07 02:33:11;;;;;;;21.37;19.20;;;19.30;99.90;;;;;;4989140;28;20461;-82
2021/06/07 02:35:41;;;;;;;22.27;19.90;;;19.30;99.90;;;;;;4980973;28;20446;-82
2021/06/07 02:38:07;;;;;;;22.53;20.37;;;19.20;99.90;;;;;;5003110;28;20770;-83
2021/06/07 02:40:34;;;;;;;23.40;21.13;;;19.50;99.90;;;;;;5007492;28;20509;-83
2021/06/07 02:43:01;;;;;;;23.70;21.10;;;19.70;99.90;;;;;;5002665;28;20933;-81
2021/06/07 02:45:29;;;;;;;22.37;19.90;;;19.30;99.90;;;;;;4993387;28;20479;-82
2021/06/07 02:47:58;;;;;;;25.50;22.23;;;19.20;99.90;;;;;;4989284;28;20457;-82
2021/06/07 02:50:28;;;;;;;27.10;23.93;;;19.60;99.90;;;;;;5011806;28;20988;-82
2021/06/07 02:52:55;;;;;;;26.30;23.67;;;19.60;99.90;;;;;;4988761;28;20432;-80
2021/06/07 02:55:24;;;;;;;27.80;25.00;;;19.40;99.90;;;;;;5010162;28;20417;-81
2021/06/07 02:57:52;;;;;;;27.07;24.37;;;19.20;99.90;;;;;;5010831;28;20480;-84
2021/06/07 03:00:21;;;;;;;27.40;24.80;;;19.40;99.90;;;;;;4979909;28;20449;-84
2021/06/07 03:02:48;;;;;;;26.83;24.23;;;19.00;99.90;;;;;;4989837;28;20792;-85
2021/06/07 03:05:15;;;;;;;27.17;24.27;;;19.50;99.90;;;;;;4993968;28;20465;-82
2021/06/07 03:07:43;;;;;;;27.00;24.20;;;19.40;99.90;;;;;;4997209;28;20556;-83
2021/06/07 03:10:11;;;;;;;28.17;25.27;;;19.00;99.90;;;;;;5006524;28;20421;-84
2021/06/07 03:12:38;;;;;;;26.53;23.13;;;19.20;99.90;;;;;;5008751;28;20431;-84
2021/06/07 03:15:06;;;;;;;27.43;24.60;;;19.40;99.90;;;;;;4987872;28;20434;-83
2021/06/07 03:17:33;;;;;;;28.33;25.20;;;19.10;99.90;;;;;;5011077;28;20990;-85
2021/06/07 03:20:00;;;;;;;25.47;22.77;;;19.10;99.90;;;;;;4997584;28;21100;-87
2021/06/07 03:22:26;;;;;;;27.07;24.30;;;18.90;99.90;;;;;;5000506;28;20585;-83
2021/06/07 03:24:54;;;;;;;28.93;25.83;;;19.30;99.90;;;;;;5007576;28;20497;-84
2021/06/07 03:27:21;;;;;;;26.80;23.93;;;19.10;99.90;;;;;;4991409;28;20487;-86
2021/06/07 03:29:48;;;;;;;28.03;25.13;;;19.30;99.90;;;;;;5009375;28;20428;-84
2021/06/07 03:32:15;;;;;;;29.47;26.37;;;19.30;99.90;;;;;;5011134;28;20851;-83
2021/06/07 03:34:42;;;;;;;30.40;26.40;;;18.90;99.90;;;;;;5009238;28;20476;-85
2021/06/07 03:37:09;;;;;;;28.57;25.57;;;18.90;99.90;;;;;;5008900;28;20950;-84
2021/06/07 03:39:37;;;;;;;31.17;27.10;;;19.20;99.90;;;;;;4983776;28;20426;-81
2021/06/07 03:42:06;;;;;;;28.03;25.17;;;19.10;99.90;;;;;;5010669;28;20451;-82
2021/06/07 03:44:32;;;;;;;30.13;27.07;;;19.10;99.90;;;;;;5009878;28;20466;-82
2021/06/07 03:46:59;;;;;;;27.20;24.30;;;19.10;99.90;;;;;;5009001;28;20472;-84
2021/06/07 03:49:26;;;;;;;27.73;24.67;;;18.70;99.90;;;;;;5003284;28;20433;-85
2021/06/07 03:51:53;;;;;;;28.27;25.40;;;18.70;99.90;;;;;;4995851;28;20463;-83
2021/06/07 03:54:20;;;;;;;28.70;24.87;;;19.00;99.90;;;;;;5002818;28;20466;-84
2021/06/07 03:56:46;;;;;;;27.30;24.40;;;19.00;99.90;;;;;;5011122;28;20874;-83
2021/06/07 03:59:14;;;;;;;28.33;25.23;;;19.10;99.90;;;;;;5005720;28;20437;-80
2021/06/07 04:01:41;;;;;;;27.70;24.30;;;18.80;99.90;;;;;;5006885;28;20509;-83
2021/06/07 04:04:08;;;;;;;25.77;22.93;;;19.00;99.90;;;;;;5005400;28;20467;-81
2021/06/07 04:06:35;;;;;;;28.00;22.87;;;18.60;99.90;;;;;;4999342;28;20492;-80
2021/06/07 04:09:02;;;;;;;25.43;22.83;;;18.90;99.90;;;;;;4996989;28;20487;-82
2021/06/07 04:11:29;;;;;;;22.77;20.47;;;19.10;99.90;;;;;;4996355;28;20463;-84
2021/06/07 04:13:56;;;;;;;24.70;22.20;;;18.70;99.90;;;;;;4995291;28;20426;-82
2021/06/07 04:16:24;;;;;;;25.57;20.87;;;19.00;99.90;;;;;;5000251;28;20463;-81
2021/06/07 04:18:50;;;;;;;24.37;21.77;;;19.10;99.90;;;;;;5000842;28;20425;-85
2021/06/07 04:21:17;;;;;;;25.10;22.47;;;18.70;99.90;;;;;;5011750;28;20445;-83
2021/06/07 04:23:43;;;;;;;23.10;20.87;;;19.20;99.90;;;;;;5014888;28;20413;-80
2021/06/07 04:26:10;;;;;;;22.10;19.70;;;18.60;99.90;;;;;;4995842;28;20554;-81
2021/06/07 04:28:39;;;;;;;23.97;21.47;;;19.10;99.90;;;;;;4992966;28;20490;-84
2021/06/07 04:31:06;;;;;;;24.63;22.17;;;18.70;99.90;;;;;;4996564;28;20463;-80
2021/06/07 04:33:34;;;;;;;22.40;19.67;;;18.70;99.90;;;;;;4999248;28;20754;-82
2021/06/07 04:36:00;;;;;;;21.60;19.40;;;18.90;99.90;;;;;;4984996;28;20483;-87
2021/06/07 04:38:27;;;;;;;23.00;20.50;;;19.20;99.90;;;;;;5014296;28;20446;-86
2021/06/07 04:40:54;;;;;;;22.77;20.40;;;19.20;99.90;;;;;;5009249;28;20420;-82
2021/06/07 04:43:20;;;;;;;22.00;19.40;;;19.10;99.90;;;;;;4997780;28;20479;-86
2021/06/07 04:45:49;;;;;;;22.73;20.43;;;18.90;99.90;;;;;;4999999;28;20445;-82
2021/06/07 04:48:16;;;;;;;21.87;19.67;;;19.30;99.90;;;;;;5006618;28;20461;-81
2021/06/07 04:50:45;;;;;;;20.07;18.00;;;19.20;99.90;;;;;;4997096;28;20447;-81
2021/06/07 04:53:13;;;;;;;21.13;18.90;;;19.10;99.90;;;;;;5012907;28;20439;-83
2021/06/07 04:55:42;;;;;;;19.40;17.40;;;19.30;99.90;;;;;;5014318;28;20526;-82
2021/06/07 04:58:11;;;;;;;18.27;16.33;;;19.40;99.90;;;;;;4990447;28;20449;-85
2021/06/07 05:00:38;;;;;;;21.10;19.00;;;19.40;99.90;;;;;;4985665;28;20427;-82
2021/06/07 05:03:05;;;;;;;19.20;17.40;;;18.90;99.90;;;;;;4993389;28;20459;-81
2021/06/07 05:05:36;;;;;;;19.60;17.70;;;19.30;99.90;;;;;;5009939;28;20459;-81
2021/06/07 05:08:05;;;;;;;18.77;16.87;;;19.30;99.90;;;;;;4980704;28;20455;-83
2021/06/07 05:10:32;;;;;;;19.10;17.30;;;19.00;99.90;;;;;;4980300;28;20438;-80
2021/06/07 05:12:59;;;;;;;20.33;17.80;;;19.40;99.90;;;;;;5012606;28;20451;-85
2021/06/07 05:15:26;;;;;;;20.07;17.97;;;19.10;99.90;;;;;;5001876;28;20435;-81
2021/06/07 05:17:53;;;;;;;19.00;17.10;;;19.50;99.90;;;;;;4981279;28;20491;-82
2021/06/07 05:20:21;;;;;;;21.33;19.23;;;19.40;99.90;;;;;;5007202;28;20491;-87
2021/06/07 05:22:49;;;;;;;19.23;17.17;;;19.50;99.90;;;;;;4994638;28;20427;-86
2021/06/07 05:25:17;;;;;;;19.20;17.20;;;19.30;99.90;;;;;;4999749;28;20776;-84
2021/06/07 05:27:44;;;;;;;19.90;17.83;;;19.40;99.90;;;;;;4983758;28;20998;-81
2021/06/07 05:30:12;;;;;;;19.30;17.50;;;19.30;99.90;;;;;;5013270;28;20416;-85
2021/06/07 05:32:39;;;;;;;20.13;18.13;;;19.60;99.90;;;;;;4986759;28;20433;-85
2021/06/07 05:35:08;;;;;;;18.83;16.77;;;19.70;99.90;;;;;;5004451;28;20471;-82
2021/06/07 05:37:36;;;;;;;18.10;16.20;;;19.70;99.90;;;;;;5008848;28;20426;-85
2021/06/07 05:40:05;;;;;;;18.63;16.83;;;19.40;99.90;;;;;;4986789;28;20454;-82
2021/06/07 05:42:33;;;;;;;17.40;15.70;;;20.00;99.90;;;;;;5011107;28;20449;-80
2021/06/07 05:44:59;;;;;;;18.20;16.40;;;19.70;99.90;;;;;;5009934;28;20461;-87
2021/06/07 05:47:26;;;;;;;15.93;14.23;;;20.20;99.90;;;;;;5008151;28;20490;-80
2021/06/07 05:49:52;;;;;;;16.97;15.37;;;19.90;99.90;;;;;;4999251;28;20451;-82
2021/06/07 05:52:19;;;;;;;16.37;14.80;;;20.20;99.90;;;;;;5003924;28;20493;-81
2021/06/07 05:54:45;;;;;;;15.77;14.27;;;20.10;99.90;;;;;;5010050;28;20463;-83
2021/06/07 05:57:12;;;;;;;17.53;15.00;;;20.60;99.90;;;;;;5003392;28;20653;-82
2021/06/07 05:59:40;;;;;;;15.93;14.30;;;20.30;99.90;;;;;;5009654;28;20462;-86
2021/06/07 06:02:08;;;;;;;17.57;14.80;;;20.80;99.90;;;;;;4993200;28;20461;-84
2021/06/07 06:04:35;;;;;;;15.47;13.93;;;20.90;99.90;;;;;;4981899;28;20485;-81
2021/06/07 06:07:03;;;;;;;15.50;13.93;;;20.80;99.90;;;;;;5011303;28;20489;-82
2021/06/07 06:09:30;;;;;;;14.80;13.47;;;21.00;99.90;;;;;;4994017;28;20477;-82
2021/06/07 06:11:57;;;;;;;15.07;13.67;;;21.10;99.90;;;;;;4997863;28;20459;-81
2021/06/07 06:14:24;;;;;;;14.27;12.77;;;21.10;99.90;;;;;;4991581;28;20469;-85
2021/06/07 06:16:52;;;;;;;13.83;12.53;;;21.00;99.90;;;;;;5007871;28;20474;-82
2021/06/07 06:19:18;;;;;;;13.50;12.10;;;21.00;99.90;;;;;;4993576;28;20491;-81
2021/06/07 06:21:45;;;;;;;14.10;12.70;;;21.30;99.90;;;;;;4994520;28;20467;-80
2021/06/07 06:24:13;;;;;;;14.27;12.87;;;21.10;99.90;;;;;;4989061;28;20455;-81
2021/06/07 06:26:40;;;;;;;15.20;13.70;;;21.50;99.90;;;;;;5009371;28;20467;-87
2021/06/07 06:29:08;;;;;;;15.27;13.83;;;21.10;99.90;;;;;;5007849;28;20994;-87
2021/06/07 06:31:35;;;;;;;14.00;12.50;;;21.50;99.90;;;;;;5008318;28;20912;-84
2021/06/07 06:34:03;;;;;;;16.00;13.53;;;21.50;99.90;;;;;;4981823;28;20498;-81
2021/06/07 06:36:30;;;;;;;14.60;13.30;;;21.10;99.90;;;;;;5010891;28;20482;-85
2021/06/07 06:38:57;;;;;;;16.30;13.43;;;21.10;99.90;;;;;;4993043;28;20457;-82
2021/06/07 06:41:24;;;;;;;15.03;13.63;;;21.10;99.90;;;;;;5001422;28;20538;-84
2021/06/07 06:43:50;;;;;;;15.63;14.13;;;21.00;99.90;;;;;;5000858;28;20443;-86
2021/06/07 06:46:17;;;;;;;17.37;15.50;;;21.40;99.90;;;;;;4994341;28;20658;-79
2021/06/07 06:48:43;;;;;;;14.67;13.30;;;21.00;99.90;;;;;;5002584;28;20487;-81
2021/06/07 06:51:11;;;;;;;15.43;13.97;;;21.30;99.90;;;;;;5011143;28;20846;-80
2021/06/07 06:53:38;;;;;;;15.07;13.67;;;21.00;99.90;;;;;;5009570;28;20869;-82
2021/06/07 06:56:06;;;;;;;14.17;12.93;;;20.90;99.90;;;;;;5005851;28;20477;-81
2021/06/07 06:58:32;;;;;;;13.77;12.47;;;20.90;99.90;;;;;;5010713;28;20450;-81
2021/06/07 07:00:59;;;;;;;14.33;13.03;;;21.30;99.90;;;;;;5000654;28;20454;-79
2021/06/07 07:03:25;;;;;;;14.83;13.43;;;21.00;99.90;;;;;;5010861;28;20773;-82
2021/06/07 07:05:53;;;;;;;15.97;14.57;;;21.00;99.90;;;;;;5023831;28;20462;-79
2021/06/07 07:08:21;;;;;;;14.93;13.60;;;21.20;99.90;;;;;;5003763;28;20482;-83
2021/06/07 07:10:49;;;;;;;15.07;13.67;;;21.20;99.90;;;;;;5002059;28;20489;-83
2021/06/07 07:13:15;;;;;;;15.20;13.77;;;21.20;99.90;;;;;;5013791;28;20537;-81
2021/06/07 07:15:43;;;;;;;14.97;13.50;;;20.90;99.90;;;;;;5012216;28;20465;-83
2021/06/07 07:18:10;;;;;;;14.00;12.57;;;21.20;99.90;;;;;;4982089;28;20455;-82
2021/06/07 07:20:37;;;;;;;15.70;14.20;;;21.30;99.90;;;;;;5009374;28;20789;-79
2021/06/07 07:23:06;;;;;;;15.47;14.07;;;21.20;99.90;;;;;;5006898;28;20426;-80
2021/06/07 07:25:35;;;;;;;14.77;13.40;;;20.90;99.90;;;;;;4991686;28;20479;-82
2021/06/07 07:28:02;;;;;;;14.50;13.13;;;21.00;99.90;;;;;;5011811;28;20490;-85
2021/06/07 07:30:31;;;;;;;16.13;14.53;;;21.40;99.90;;;;;;4984775;28;20501;-82
2021/06/07 07:32:58;;;;;;;14.63;13.27;;;21.30;99.90;;;;;;5007718;28;20443;-79
2021/06/07 07:35:25;;;;;;;16.47;14.83;;;21.40;99.90;;;;;;5007707;28;20999;-78
2021/06/07 07:37:52;;;;;;;17.20;15.33;;;21.10;99.90;;;;;;4987647;28;20481;-81
2021/06/07 07:40:21;;;;;;;18.90;17.00;;;21.60;99.90;;;;;;5003605;28;20454;-79
2021/06/07 07:42:51;;;;;;;19.90;18.00;;;21.20;99.90;;;;;;4995817;28;20488;-80
2021/06/07 07:45:20;;;;;;;20.07;18.07;;;21.30;99.90;;;;;;5002988;28;20556;-82
2021/06/07 07:47:47;;;;;;;23.10;19.07;;;21.30;99.90;;;;;;4989558;28;20491;-81
2021/06/07 07:50:18;;;;;;;20.33;18.33;;;21.70;99.90;;;;;;5022370;28;20438;-79
2021/06/07 07:52:45;;;;;;;20.17;18.00;;;21.70;99.90;;;;;;5006514;28;20463;-82
2021/06/07 07:55:14;;;;;;;22.00;19.60;;;21.70;99.90;;;;;;5014293;28;20447;-79
2021/06/07 07:57:42;;;;;;;24.23;20.33;;;21.60;99.90;;;;;;4994947;28;20542;-81
2021/06/07 08:00:13;;;;;;;23.03;20.37;;;21.80;99.90;;;;;;4998268;28;20462;-81
2021/06/07 08:02:40;;;;;;;23.23;20.80;;;21.40;99.90;;;;;;4981912;28;20473;-79
2021/06/07 08:05:08;;;;;;;21.63;19.43;;;21.50;99.90;;;;;;4985513;28;20497;-79
2021/06/07 08:07:34;;;;;;;24.70;22.10;;;21.60;99.90;;;;;;5014246;28;20532;-80
2021/06/07 08:10:01;;;;;;;24.13;21.63;;;21.70;99.90;;;;;;5004973;28;20543;-79
2021/06/07 08:12:28;;;;;;;29.07;23.70;;;21.80;99.90;;;;;;5004314;28;20582;-83
2021/06/07 08:14:54;;;;;;;27.83;24.83;;;21.60;99.90;;;;;;5010806;28;20481;-80
2021/06/07 08:17:22;;;;;;;33.40;27.70;;;22.00;99.90;;;;;;5009948;28;20486;-78
2021/06/07 08:19:49;;;;;;;32.10;28.10;;;22.00;99.90;;;;;;4997946;28;20457;-84
2021/06/07 08:22:17;;;;;;;33.47;29.93;;;21.80;99.90;;;;;;5009530;28;20825;-83
2021/06/07 08:24:43;;;;;;;30.80;26.27;;;21.60;99.90;;;;;;4994772;28;20520;-81
2021/06/07 08:27:10;;;;;;;34.10;29.23;;;21.80;99.90;;;;;;5001395;28;20541;-80
2021/06/07 08:29:36;;;;;;;29.20;26.20;;;22.00;99.90;;;;;;5012230;28;20447;-83
2021/06/07 08:32:04;;;;;;;30.10;25.63;;;21.60;99.90;;;;;;5008855;28;20454;-79
2021/06/07 08:34:32;;;;;;;27.67;24.57;;;21.60;99.90;;;;;;5000569;28;20455;-81
2021/06/07 08:36:58;;;;;;;26.47;23.70;;;21.80;99.90;;;;;;4998283;28;20478;-81
2021/06/07 08:39:25;;;;;;;25.07;22.53;;;22.00;99.90;;;;;;4984998;28;20928;-81
2021/06/07 08:41:56;;;;;;;26.30;22.60;;;22.20;99.90;;;;;;5013078;28;20438;-80
2021/06/07 08:44:24;;;;;;;25.90;23.20;;;22.10;99.90;;;;;;5012593;28;20447;-83
2021/06/07 08:46:50;;;;;;;21.17;19.27;;;22.50;99.90;;;;;;5012544;28;20819;-80
2021/06/07 08:49:17;;;;;;;21.20;19.10;;;22.30;99.90;;;;;;5012666;28;20441;-82
2021/06/07 08:51:45;;;;;;;16.60;15.13;;;22.70;99.90;;;;;;5001051;28;20463;-81
2021/06/07 08:54:11;;;;;;;16.50;14.87;;;22.80;99.90;;;;;;5008381;28;20543;-80
2021/06/07 08:56:40;;;;;;;16.07;14.57;;;22.90;99.90;;;;;;5009562;28;20471;-82
2021/06/07 08:59:06;;;;;;;21.10;18.77;;;22.50;99.90;;;;;;5011145;28;20829;-83
2021/06/07 09:01:32;;;;;;;22.93;19.07;;;22.90;99.90;;;;;;5003975;28;20464;-80
2021/06/07 09:04:09;;;;;;;22.57;20.27;;;22.80;99.90;;;;;;5003697;28;20468;-80
2021/06/07 09:06:39;;;;;;;22.93;20.83;;;22.70;99.90;;;;;;5006323;28;20834;-81
2021/06/07 09:09:09;;;;;;;20.63;18.63;;;22.60;99.90;;;;;;5005313;28;20528;-83
2021/06/07 09:11:44;;;;;;;18.03;16.23;;;22.80;99.90;;;;;;4984368;28;20936;-79
2021/06/07 09:14:21;;;;;;;18.73;16.63;;;22.60;99.90;;;;;;4997583;28;20483;-82
2021/06/07 09:16:49;;;;;;;17.20;15.40;;;22.60;99.90;;;;;;5002003;28;20987;-82
2021/06/07 09:19:26;;;;;;;18.60;16.60;;;22.50;99.90;;;;;;4972926;28;20447;-86
2021/06/07 09:21:56;;;;;;;18.90;16.93;;;22.80;99.90;;;;;;4998527;28;20450;-87
2021/06/07 09:24:24;;;;;;;19.43;17.43;;;22.40;99.90;;;;;;4996036;28;20443;-82
2021/06/07 09:26:51;;;;;;;20.80;18.70;;;22.50;99.90;;;;;;5013064;28;20479;-81
2021/06/07 09:29:34;;;;;;;20.43;18.23;;;22.40;99.90;;;;;;5008129;28;20608;-84
2021/06/07 09:32:01;;;;;;;20.37;18.47;;;22.70;99.90;;;;;;4985815;28;20818;-86
2021/06/07 09:34:29;;;;;;;19.90;17.80;;;22.70;99.90;;;;;;5003734;28;20492;-81
2021/06/07 09:37:03;;;;;;;17.57;15.77;;;22.50;99.90;;;;;;4995868;28;20965;-81
2021/06/07 09:39:31;;;;;;;19.73;17.87;;;22.70;99.90;;;;;;4986969;28;20805;-82
2021/06/07 09:42:00;;;;;;;21.40;19.40;;;22.90;99.90;;;;;;5004962;28;20442;-84
2021/06/07 09:44:34;;;;;;;22.33;20.10;;;22.60;99.90;;;;;;5015024;28;20447;-83
2021/06/07 09:47:12;;;;;;;20.97;18.90;;;22.50;99.90;;;;;;5011221;28;20481;-84
2021/06/07 09:49:40;;;;;;;21.30;18.93;;;22.50;99.90;;;;;;4994979;28;20862;-80
2021/06/07 09:52:10;;;;;;;20.07;18.20;;;22.80;99.90;;;;;;5005576;28;20461;-83
2021/06/07 09:54:38;;;;;;;22.03;19.93;;;22.80;99.90;;;;;;4993201;28;20466;-83
2021/06/07 09:57:05;;;;;;;21.10;19.00;;;22.70;99.90;;;;;;5002485;28;20888;-82
2021/06/07 09:59:34;;;;;;;21.00;19.00;;;22.70;99.90;;;;;;4994654;28;20443;-83
2021/06/07 10:02:12;;;;;;;21.63;19.47;;;22.60;99.90;;;;;;5009597;28;20468;-83
2021/06/07 10:04:55;;;;;;;19.93;18.03;;;22.60;99.90;;;;;;4990761;28;20451;-81
2021/06/07 10:07:23;;;;;;;21.40;19.40;;;22.20;99.90;;;;;;4993669;28;20565;-83
2021/06/07 10:10:10;;;;;;;20.37;18.50;;;22.60;99.90;;;;;;4965090;28;20459;-82
2021/06/07 10:12:39;;;;;;;22.23;17.90;;;22.30;99.90;;;;;;5007423;28;20455;-81
2021/06/07 10:15:07;;;;;;;24.57;22.20;;;22.60;99.90;;;;;;4989715;28;20462;-81
2021/06/07 10:17:34;;;;;;;22.77;20.33;;;22.50;99.90;;;;;;5013320;28;20470;-83
2021/06/07 10:22:43;;;;;;;24.03;21.47;;;22.60;99.90;;;;;;5013310;28;20430;-81
2021/06/07 10:25:12;;;;;;;19.73;17.50;;;22.60;99.90;;;;;;5011220;28;20512;-79
2021/06/07 10:27:39;;;;;;;19.63;17.63;;;22.50;99.90;;;;;;4998943;28;20467;-79
2021/06/07 10:30:15;;;;;;;19.30;17.37;;;22.40;99.90;;;;;;5010370;28;20863;-84
2021/06/07 10:32:42;;;;;;;17.10;15.60;;;22.70;99.90;;;;;;5010493;28;20525;-83
2021/06/07 10:35:09;;;;;;;19.30;17.37;;;22.80;99.90;;;;;;4996018;28;20785;-85
2021/06/07 10:37:56;;;;;;;18.27;16.37;;;22.40;99.90;;;;;;5026485;28;20446;-82
2021/06/07 10:40:26;;;;;;;19.53;17.50;;;22.50;99.90;;;;;;4995177;28;20966;-81
2021/06/07 10:42:54;;;;;;;18.40;16.47;;;22.80;99.90;;;;;;5013561;28;20538;-78
2021/06/07 10:45:24;;;;;;;17.23;15.53;;;22.50;99.90;;;;;;4995861;28;20455;-83
2021/06/07 10:47:51;;;;;;;18.47;16.67;;;22.40;99.90;;;;;;5004039;28;21073;-81
2021/06/07 10:50:21;;;;;;;18.83;16.93;;;22.40;99.90;;;;;;4994922;28;20459;-81
2021/06/07 10:52:51;;;;;;;17.67;15.97;;;22.40;99.90;;;;;;5020747;28;20466;-83
2021/06/07 10:55:22;;;;;;;18.53;16.63;;;22.60;99.90;;;;;;5015848;28;20529;-82
2021/06/07 10:57:51;;;;;;;21.40;17.97;;;22.40;99.90;;;;;;4971185;28;20459;-83
2021/06/07 11:00:22;;;;;;;20.60;18.60;;;22.20;99.90;;;;;;5010075;28;20443;-82
2021/06/07 11:02:51;;;;;;;17.77;15.97;;;22.40;99.90;;;;;;4997931;28;20872;-83
2021/06/07 11:05:19;;;;;;;17.67;15.97;;;22.40;99.90;;;;;;5005118;28;20553;-82
2021/06/07 11:07:59;;;;;;;16.83;15.13;;;22.50;99.90;;;;;;4991994;28;20553;-83
2021/06/07 11:10:27;;;;;;;16.67;14.90;;;22.50;99.90;;;;;;5008874;28;21041;-82
2021/06/07 11:12:59;;;;;;;18.33;16.63;;;22.50;99.90;;;;;;4988417;28;20512;-81
2021/06/07 11:15:28;;;;;;;18.73;16.73;;;22.40;99.90;;;;;;5006532;28;20513;-81
2021/06/07 11:18:18;;;;;;;19.17;17.23;;;22.50;99.90;;;;;;4990274;28;20474;-82
2021/06/07 11:20:45;;;;;;;17.37;15.57;;;22.50;99.90;;;;;;4986217;28;20998;-82
2021/06/07 11:23:13;;;;;;;19.40;16.40;;;22.30;99.90;;;;;;5003838;28;20972;-82
2021/06/07 11:25:44;;;;;;;17.97;15.30;;;22.40;99.90;;;;;;4998167;28;20462;-82
2021/06/07 11:28:36;;;;;;;18.60;16.43;;;22.50;99.90;;;;;;4997030;28;20560;-78
2021/06/07 11:31:05;;;;;;;16.80;15.10;;;22.60;99.90;;;;;;4982479;28;20497;-79
2021/06/07 11:33:48;;;;;;;18.07;16.20;;;22.80;99.90;;;;;;5011466;28;20454;-80
2021/06/07 11:36:45;;;;;;;16.00;14.30;;;22.80;99.90;;;;;;4998236;28;20491;-82
2021/06/07 11:39:13;;;;;;;15.97;13.30;;;22.60;99.90;;;;;;4991282;28;20544;-80
2021/06/07 11:41:42;;;;;;;15.87;13.90;;;22.90;99.90;;;;;;4995375;28;20451;-81
2021/06/07 11:44:11;;;;;;;15.17;13.43;;;22.90;99.90;;;;;;5009399;28;20451;-79
2021/06/07 11:46:54;;;;;;;18.13;12.97;;;23.00;99.90;;;;;;4991814;28;20479;-81
2021/06/07 11:49:21;;;;;;;15.93;14.33;;;23.00;99.90;;;;;;5014460;28;20487;-80
2021/06/07 11:52:00;;;;;;;17.40;15.53;;;22.80;99.90;;;;;;4987814;28;20454;-82
2021/06/07 11:54:50;;;;;;;16.20;14.57;;;23.00;99.90;;;;;;4993279;28;20794;-79
2021/06/07 11:57:19;;;;;;;16.57;14.87;;;22.90;99.90;;;;;;4993182;28;20833;-81
2021/06/07 11:59:55;;;;;;;17.00;15.30;;;22.80;99.90;;;;;;4989418;28;20790;-82
2021/06/07 12:02:22;;;;;;;16.67;14.00;;;22.80;99.90;;;;;;4994559;28;20465;-82
2021/06/07 12:04:49;;;;;;;14.60;13.30;;;22.80;99.90;;;;;;5003185;28;20439;-81
2021/06/07 12:07:18;;;;;;;17.03;15.23;;;23.00;99.90;;;;;;5023330;28;20467;-82
2021/06/07 12:09:48;;;;;;;19.60;17.50;;;22.90;99.90;;;;;;4988817;28;20454;-79
2021/06/07 12:12:15;;;;;;;21.00;19.00;;;22.60;99.90;;;;;;5000072;28;20440;-81
2021/06/07 12:14:45;;;;;;;18.00;16.20;;;22.50;99.90;;;;;;5009992;28;20526;-81
2021/06/07 12:17:17;;;;;;;13.73;12.40;;;22.40;99.90;;;;;;5012000;28;20462;-81
2021/06/07 12:19:46;;;;;;;12.77;11.53;;;22.40;99.90;;;;;;4988006;28;20463;-80
2021/06/07 12:22:29;;;;;;;11.03;9.93;;;22.40;99.90;;;;;;4979632;28;20454;-78
2021/06/07 12:24:58;;;;;;;10.60;9.60;;;22.40;99.90;;;;;;5009495;28;20443;-79
2021/06/07 12:30:14;;;;;;;10.00;9.10;;;22.40;99.90;;;;;;5012374;28;20904;-78
2021/06/07 12:32:42;;;;;;;9.30;8.50;;;22.20;99.90;;;;;;5011948;28;20940;-82
2021/06/07 12:35:12;;;;;;;11.00;9.30;;;22.10;99.90;;;;;;5002446;28;20966;-80
2021/06/07 12:37:42;;;;;;;10.13;9.23;;;22.30;99.90;;;;;;5009073;28;20848;-81
2021/06/07 12:40:19;;;;;;;9.83;8.93;;;22.10;99.90;;;;;;4992094;28;20503;-81
2021/06/07 12:42:51;;;;;;;9.53;8.73;;;22.20;99.90;;;;;;5001959;28;20460;-80